Time;durP1;ratioP1;P1;durP2;ratioP2;P2;SDS_P1;SDS_P2;PMS_P1;PMS_P2;Temp;Humidity;BMP_temperature;BMP_pressure;BME280_temperature;BME280_humidity;BME280_pressure;Samples;Min_cycle;Max_cycle;Signal;HPM_P1;HPM_P2
2023/03/19 00:01:06;;;;;;;16.77;8.93;;;;;;;;;;4944540;28;20146;-71
2023/03/19 00:03:32;;;;;;;18.88;9.77;;;;;;;;;;4944481;29;20087;-70
2023/03/19 00:05:58;;;;;;;18.98;11.43;;;;;;;;;;4943554;29;20050;-70
2023/03/19 00:08:24;;;;;;;24.73;13.48;;;;;;;;;;4943111;29;20047;-70
2023/03/19 00:10:50;;;;;;;25.88;13.52;;;;;;;;;;4944041;28;20047;-71
2023/03/19 00:13:16;;;;;;;28.88;15.63;;;;;;;;;;4927632;29;20058;-70
2023/03/19 00:15:41;;;;;;;31.25;14.25;;;;;;;;;;4943622;29;20486;-70
2023/03/19 00:18:07;;;;;;;21.70;11.20;;;;;;;;;;4943691;29;20058;-71
2023/03/19 00:20:32;;;;;;;19.80;10.70;;;;;;;;;;4943115;28;20066;-70
2023/03/19 00:22:58;;;;;;;26.00;14.10;;;;;;;;;;4944234;28;20099;-70
2023/03/19 00:25:23;;;;;;;27.75;16.00;;;;;;;;;;4943710;29;20051;-70
2023/03/19 00:27:49;;;;;;;27.55;16.45;;;;;;;;;;4943566;29;20537;-70
2023/03/19 00:30:14;;;;;;;57.80;26.42;;;;;;;;;;4942764;29;20521;-70
2023/03/19 00:32:40;;;;;;;75.57;30.88;;;;;;;;;;4943608;28;20142;-70
2023/03/19 00:35:07;;;;;;;51.72;25.13;;;;;;;;;;4943455;29;20142;-70
2023/03/19 00:37:34;;;;;;;48.08;23.70;;;;;;;;;;4925031;29;20051;-70
2023/03/19 00:39:59;;;;;;;38.97;19.10;;;;;;;;;;4944007;29;20067;-70
2023/03/19 00:42:25;;;;;;;28.80;15.18;;;;;;;;;;4942398;28;20067;-71
2023/03/19 00:44:50;;;;;;;31.90;15.80;;;;;;;;;;4943475;28;20051;-70
2023/03/19 00:47:16;;;;;;;36.22;17.05;;;;;;;;;;4943828;29;20049;-70
2023/03/19 00:49:41;;;;;;;30.88;17.35;;;;;;;;;;4926557;29;21063;-70
2023/03/19 00:52:07;;;;;;;33.03;15.45;;;;;;;;;;4925627;29;20046;-71
2023/03/19 00:54:33;;;;;;;26.25;13.63;;;;;;;;;;4942523;28;20059;-70
2023/03/19 00:56:59;;;;;;;23.52;12.35;;;;;;;;;;4926457;29;20055;-70
2023/03/19 00:59:24;;;;;;;23.48;12.05;;;;;;;;;;4943123;29;20054;-71
2023/03/19 01:01:51;;;;;;;25.42;12.63;;;;;;;;;;4926218;29;20051;-70
2023/03/19 01:04:19;;;;;;;19.70;11.57;;;;;;;;;;4924647;29;20043;-70
2023/03/19 01:06:44;;;;;;;18.95;11.40;;;;;;;;;;4925420;29;20130;-70
2023/03/19 01:09:10;;;;;;;22.77;11.82;;;;;;;;;;4926253;29;20117;-70
2023/03/19 01:11:35;;;;;;;19.05;11.10;;;;;;;;;;4925759;29;20507;-70
2023/03/19 01:14:01;;;;;;;16.38;10.75;;;;;;;;;;4926010;29;20078;-71
2023/03/19 01:16:27;;;;;;;24.90;12.45;;;;;;;;;;4923962;28;20059;-70
2023/03/19 01:18:53;;;;;;;19.58;11.32;;;;;;;;;;4926233;29;20080;-70
2023/03/19 01:21:20;;;;;;;23.27;11.10;;;;;;;;;;4923598;29;20047;-71
2023/03/19 01:23:47;;;;;;;20.90;11.48;;;;;;;;;;4924081;28;20392;-70
2023/03/19 01:26:13;;;;;;;19.63;11.52;;;;;;;;;;4923189;29;20139;-70
2023/03/19 01:28:40;;;;;;;19.30;11.45;;;;;;;;;;4941280;28;20039;-70
2023/03/19 01:31:07;;;;;;;20.63;11.60;;;;;;;;;;4923614;29;20083;-70
2023/03/19 01:33:53;;;;;;;15.95;9.45;;;;;;;;;;4942326;28;20532;-70
2023/03/19 01:36:35;;;;;;;33.85;11.18;;;;;;;;;;4908232;29;20055;-69
2023/03/19 01:39:02;;;;;;;20.88;11.55;;;;;;;;;;4925925;29;20050;-70
2023/03/19 01:41:28;;;;;;;19.25;11.02;;;;;;;;;;4925207;29;20055;-70
2023/03/19 01:44:00;;;;;;;25.13;12.02;;;;;;;;;;4924248;29;20058;-70
2023/03/19 01:46:46;;;;;;;21.15;10.63;;;;;;;;;;4925174;29;20094;-70
2023/03/19 01:49:25;;;;;;;22.45;10.98;;;;;;;;;;4941687;28;20055;-70
2023/03/19 01:52:04;;;;;;;22.90;10.50;;;;;;;;;;4925300;29;20066;-70
2023/03/19 01:54:35;;;;;;;22.10;12.38;;;;;;;;;;4906990;28;20114;-70
2023/03/19 01:57:22;;;;;;;22.05;13.50;;;;;;;;;;4942367;28;20086;-70
2023/03/19 02:00:09;;;;;;;27.00;12.90;;;;;;;;;;4940917;29;20059;-71
2023/03/19 02:02:47;;;;;;;27.92;12.05;;;;;;;;;;4941672;29;20057;-70
2023/03/19 02:05:42;;;;;;;20.75;11.93;;;;;;;;;;4924078;28;20039;-70
2023/03/19 02:08:13;;;;;;;21.55;12.55;;;;;;;;;;4924519;29;20051;-70
2023/03/19 02:10:41;;;;;;;20.65;11.38;;;;;;;;;;4941981;29;20176;-70
2023/03/19 02:13:07;;;;;;;23.83;12.23;;;;;;;;;;4941878;29;20479;-70
2023/03/19 02:15:32;;;;;;;21.95;12.45;;;;;;;;;;4940939;28;20105;-69
2023/03/19 02:17:58;;;;;;;21.98;12.43;;;;;;;;;;4925138;29;20047;-70
2023/03/19 02:20:29;;;;;;;19.92;11.40;;;;;;;;;;4941640;29;20999;-70
2023/03/19 02:23:07;;;;;;;46.45;18.80;;;;;;;;;;4925031;29;20046;-70
2023/03/19 02:25:45;;;;;;;57.25;27.85;;;;;;;;;;4924549;29;20051;-70
2023/03/19 02:28:14;;;;;;;68.07;33.22;;;;;;;;;;4923416;29;20055;-70
2023/03/19 02:30:42;;;;;;;53.25;26.42;;;;;;;;;;4924621;29;20057;-70
2023/03/19 02:33:14;;;;;;;41.75;20.02;;;;;;;;;;4924963;29;20055;-70
2023/03/19 02:35:41;;;;;;;35.83;18.27;;;;;;;;;;4938302;28;20054;-70
2023/03/19 02:38:07;;;;;;;31.70;17.38;;;;;;;;;;4907309;29;20142;-71
2023/03/19 02:40:42;;;;;;;32.63;16.42;;;;;;;;;;4924492;29;20051;-70
2023/03/19 02:43:08;;;;;;;26.98;15.75;;;;;;;;;;4925196;29;20055;-70
2023/03/19 02:45:33;;;;;;;28.27;15.57;;;;;;;;;;4941644;29;20057;-70
2023/03/19 02:48:01;;;;;;;26.60;14.93;;;;;;;;;;4941395;29;20086;-70
2023/03/19 02:50:27;;;;;;;25.15;14.23;;;;;;;;;;4923409;28;20047;-70
2023/03/19 02:52:52;;;;;;;24.67;14.10;;;;;;;;;;4941379;29;20054;-70
2023/03/19 02:55:20;;;;;;;25.52;14.38;;;;;;;;;;4924785;29;20197;-70
2023/03/19 02:57:45;;;;;;;28.13;14.68;;;;;;;;;;4924257;29;20050;-70
2023/03/19 03:00:12;;;;;;;25.02;13.90;;;;;;;;;;4941813;28;20061;-71
2023/03/19 03:02:37;;;;;;;22.20;12.68;;;;;;;;;;4946143;28;20190;-70
2023/03/19 03:05:05;;;;;;;24.58;13.80;;;;;;;;;;4945811;29;20150;-70
2023/03/19 03:07:31;;;;;;;20.02;12.05;;;;;;;;;;4928540;29;20506;-70
2023/03/19 03:09:57;;;;;;;18.77;9.65;;;;;;;;;;4928435;29;20051;-70
2023/03/19 03:12:23;;;;;;;13.35;7.32;;;;;;;;;;4943802;28;20058;-70
2023/03/19 03:14:48;;;;;;;10.10;5.72;;;;;;;;;;4927904;29;20150;-70
2023/03/19 03:17:14;;;;;;;9.32;5.78;;;;;;;;;;4945085;29;21009;-70
2023/03/19 03:19:39;;;;;;;7.97;4.85;;;;;;;;;;4928284;29;20070;-70
2023/03/19 03:22:06;;;;;;;9.25;5.50;;;;;;;;;;4943883;28;20569;-70
2023/03/19 03:24:32;;;;;;;6.63;4.68;;;;;;;;;;4945018;28;20090;-70
2023/03/19 03:26:57;;;;;;;9.43;5.68;;;;;;;;;;4927848;29;20047;-70
2023/03/19 03:29:23;;;;;;;12.50;9.00;;;;;;;;;;4928298;29;20045;-70
2023/03/19 03:31:48;;;;;;;17.15;9.82;;;;;;;;;;4944918;29;20544;-70
2023/03/19 03:34:14;;;;;;;14.32;8.75;;;;;;;;;;4943588;28;20051;-70
2023/03/19 03:36:39;;;;;;;13.63;6.80;;;;;;;;;;4944271;28;20620;-70
2023/03/19 03:39:05;;;;;;;9.88;4.97;;;;;;;;;;4928041;29;20158;-70
2023/03/19 03:41:30;;;;;;;8.82;4.75;;;;;;;;;;4944621;29;20047;-70
2023/03/19 03:43:56;;;;;;;10.13;5.70;;;;;;;;;;4926926;29;20764;-70
2023/03/19 03:46:23;;;;;;;11.02;6.55;;;;;;;;;;4926878;29;20055;-70
2023/03/19 03:48:50;;;;;;;9.48;6.13;;;;;;;;;;4927604;29;20047;-70
2023/03/19 03:51:17;;;;;;;9.45;5.75;;;;;;;;;;4927629;29;20047;-70
2023/03/19 03:53:43;;;;;;;9.68;4.63;;;;;;;;;;4943961;29;20047;-70
2023/03/19 03:56:10;;;;;;;6.30;4.72;;;;;;;;;;4925816;29;20437;-70
2023/03/19 03:58:36;;;;;;;10.57;4.57;;;;;;;;;;4927358;29;20543;-70
2023/03/19 04:01:02;;;;;;;8.70;4.72;;;;;;;;;;4944773;29;20106;-70
2023/03/19 04:03:29;;;;;;;6.47;4.78;;;;;;;;;;4927112;29;20097;-70
2023/03/19 04:05:55;;;;;;;8.95;4.68;;;;;;;;;;4926766;29;20403;-70
2023/03/19 04:08:21;;;;;;;6.18;4.50;;;;;;;;;;4942238;28;20073;-70
2023/03/19 04:10:47;;;;;;;5.03;4.00;;;;;;;;;;4927079;28;20055;-70
2023/03/19 04:13:12;;;;;;;6.88;4.03;;;;;;;;;;4942896;29;20098;-70
2023/03/19 04:15:41;;;;;;;11.02;5.45;;;;;;;;;;4926788;29;20080;-70
2023/03/19 04:18:07;;;;;;;14.18;6.20;;;;;;;;;;4909788;29;20525;-71
2023/03/19 04:20:32;;;;;;;9.20;5.30;;;;;;;;;;4943958;28;20051;-70
2023/03/19 04:22:58;;;;;;;17.02;9.48;;;;;;;;;;4927087;29;20047;-70
2023/03/19 04:25:23;;;;;;;16.45;8.98;;;;;;;;;;4944091;29;20054;-70
2023/03/19 04:27:51;;;;;;;19.25;9.75;;;;;;;;;;4926090;28;20113;-70
2023/03/19 04:30:16;;;;;;;18.27;9.20;;;;;;;;;;4943387;28;20050;-70
2023/03/19 04:32:43;;;;;;;17.13;9.07;;;;;;;;;;4943500;29;20414;-70
2023/03/19 04:35:09;;;;;;;14.27;8.57;;;;;;;;;;4925675;29;20577;-70
2023/03/19 04:37:35;;;;;;;19.42;8.95;;;;;;;;;;4942721;28;20510;-70
2023/03/19 04:40:00;;;;;;;17.23;9.18;;;;;;;;;;4925498;29;20046;-70
2023/03/19 04:42:31;;;;;;;17.48;9.32;;;;;;;;;;4925640;29;20047;-70
2023/03/19 04:45:05;;;;;;;14.70;8.25;;;;;;;;;;4926076;29;20051;-70
2023/03/19 04:47:30;;;;;;;21.27;9.63;;;;;;;;;;4924838;29;20075;-70
2023/03/19 04:49:58;;;;;;;15.45;9.50;;;;;;;;;;4925733;29;20521;-70
2023/03/19 04:52:24;;;;;;;16.30;8.27;;;;;;;;;;4925202;29;20613;-70
2023/03/19 04:54:50;;;;;;;11.15;6.43;;;;;;;;;;4925874;29;20058;-70
2023/03/19 04:57:16;;;;;;;11.02;6.60;;;;;;;;;;4910336;29;20506;-70
2023/03/19 04:59:44;;;;;;;11.57;6.55;;;;;;;;;;4925863;29;20047;-70
2023/03/19 05:02:14;;;;;;;13.80;8.43;;;;;;;;;;4924344;29;20062;-70
2023/03/19 05:04:41;;;;;;;12.48;7.32;;;;;;;;;;4926098;29;20182;-70
2023/03/19 05:07:10;;;;;;;9.60;7.10;;;;;;;;;;4925765;29;20047;-70
2023/03/19 05:09:36;;;;;;;20.80;7.82;;;;;;;;;;4925712;29;20053;-70
2023/03/19 05:12:01;;;;;;;14.43;7.35;;;;;;;;;;4924857;29;20051;-70
2023/03/19 05:14:31;;;;;;;14.25;7.40;;;;;;;;;;4925005;29;20180;-70
2023/03/19 05:17:14;;;;;;;12.98;8.02;;;;;;;;;;4924917;29;20463;-70
2023/03/19 05:19:58;;;;;;;14.50;8.18;;;;;;;;;;4941392;29;20118;-70
2023/03/19 05:22:25;;;;;;;14.48;7.97;;;;;;;;;;4923887;28;20047;-70
2023/03/19 05:24:51;;;;;;;13.75;8.07;;;;;;;;;;4923158;28;20106;-70
2023/03/19 05:27:16;;;;;;;16.95;8.00;;;;;;;;;;4925281;29;20047;-70
2023/03/19 05:29:48;;;;;;;12.10;7.78;;;;;;;;;;4938999;29;20055;-70
2023/03/19 05:32:24;;;;;;;15.23;7.90;;;;;;;;;;4909345;29;20074;-70
2023/03/19 05:34:50;;;;;;;12.05;7.30;;;;;;;;;;4923622;29;20062;-70
2023/03/19 05:37:17;;;;;;;13.63;7.30;;;;;;;;;;4924579;29;20036;-70
2023/03/19 05:39:45;;;;;;;12.68;7.10;;;;;;;;;;4924555;29;20063;-69
2023/03/19 05:42:13;;;;;;;15.98;7.07;;;;;;;;;;4924074;29;20059;-70
2023/03/19 05:44:39;;;;;;;10.38;7.55;;;;;;;;;;4923875;28;20605;-70
2023/03/19 05:47:15;;;;;;;16.38;8.23;;;;;;;;;;4941850;28;20043;-70
2023/03/19 05:49:47;;;;;;;13.35;7.88;;;;;;;;;;4924523;29;20052;-70
2023/03/19 05:52:13;;;;;;;12.00;7.90;;;;;;;;;;4924627;29;20050;-70
2023/03/19 05:54:40;;;;;;;12.68;7.95;;;;;;;;;;4924227;29;20110;-70
2023/03/19 05:57:15;;;;;;;13.25;7.38;;;;;;;;;;4924605;29;20051;-70
2023/03/19 05:59:50;;;;;;;13.98;5.90;;;;;;;;;;4941812;28;20388;-70
2023/03/19 06:02:39;;;;;;;10.07;6.75;;;;;;;;;;4909349;29;20418;-70
2023/03/19 06:05:16;;;;;;;11.25;6.68;;;;;;;;;;4925008;29;20086;-70
2023/03/19 06:07:42;;;;;;;13.65;7.45;;;;;;;;;;4923448;28;20047;-70
2023/03/19 06:10:15;;;;;;;8.32;5.13;;;;;;;;;;4921269;29;20050;-70
2023/03/19 06:12:41;;;;;;;9.13;5.68;;;;;;;;;;4922489;29;20047;-70
2023/03/19 06:15:41;;;;;;;7.90;5.30;;;;;;;;;;4921023;29;20068;-70
2023/03/19 06:18:30;;;;;;;7.32;4.75;;;;;;;;;;4933899;28;20046;-70
2023/03/19 06:20:57;;;;;;;6.68;4.55;;;;;;;;;;4924058;29;20595;-70
2023/03/19 06:23:23;;;;;;;8.98;4.85;;;;;;;;;;4924210;29;20039;-70
2023/03/19 06:25:48;;;;;;;9.27;4.95;;;;;;;;;;4924262;29;20047;-70
2023/03/19 06:28:15;;;;;;;5.50;4.20;;;;;;;;;;4922684;29;20039;-70
2023/03/19 06:30:43;;;;;;;8.20;3.90;;;;;;;;;;4922951;28;20043;-70
2023/03/19 06:33:30;;;;;;;7.70;4.00;;;;;;;;;;4941278;29;20513;-70
2023/03/19 06:35:57;;;;;;;8.63;4.07;;;;;;;;;;4929005;29;20150;-70
2023/03/19 06:38:23;;;;;;;7.50;3.83;;;;;;;;;;4924192;29;20058;-70
2023/03/19 06:40:48;;;;;;;4.47;3.38;;;;;;;;;;4944269;28;20047;-70
2023/03/19 06:43:14;;;;;;;10.43;4.18;;;;;;;;;;4944934;28;20514;-70
2023/03/19 06:45:39;;;;;;;4.60;3.33;;;;;;;;;;4944478;29;20058;-69
2023/03/19 06:48:05;;;;;;;8.48;4.45;;;;;;;;;;4945005;29;20161;-70
2023/03/19 06:50:30;;;;;;;8.93;4.25;;;;;;;;;;4942460;28;20043;-70
2023/03/19 06:52:57;;;;;;;6.82;3.70;;;;;;;;;;4944031;28;20414;-70
2023/03/19 06:55:22;;;;;;;8.50;4.18;;;;;;;;;;4944767;29;20150;-70
2023/03/19 06:57:49;;;;;;;8.77;4.60;;;;;;;;;;4944393;29;20146;-69
2023/03/19 07:00:15;;;;;;;8.43;4.60;;;;;;;;;;4943175;29;20050;-69
2023/03/19 07:02:41;;;;;;;10.40;5.10;;;;;;;;;;4926007;28;20054;-70
2023/03/19 07:05:07;;;;;;;5.38;3.90;;;;;;;;;;4926278;29;20043;-69
2023/03/19 07:07:32;;;;;;;9.45;4.53;;;;;;;;;;4943425;29;20051;-70
2023/03/19 07:09:58;;;;;;;6.20;3.50;;;;;;;;;;4943148;29;20043;-70
2023/03/19 07:12:26;;;;;;;5.88;3.95;;;;;;;;;;4942476;29;20110;-70
2023/03/19 07:14:54;;;;;;;7.07;4.68;;;;;;;;;;4943761;28;20639;-69
2023/03/19 07:17:20;;;;;;;13.05;4.20;;;;;;;;;;4943521;28;20442;-70
2023/03/19 07:19:46;;;;;;;8.02;5.07;;;;;;;;;;4943894;29;20039;-70
2023/03/19 07:22:11;;;;;;;7.00;4.53;;;;;;;;;;4942538;29;20133;-70
2023/03/19 07:25:26;;;;;;;6.63;3.75;;;;;;;;;;4944795;28;20529;-70
2023/03/19 07:27:52;;;;;;;6.65;4.15;;;;;;;;;;4944811;28;20050;-69
2023/03/19 07:30:18;;;;;;;10.07;5.75;;;;;;;;;;4942776;29;20047;-70
2023/03/19 07:32:43;;;;;;;8.50;4.65;;;;;;;;;;4944290;29;20058;-69
2023/03/19 07:35:09;;;;;;;7.57;4.32;;;;;;;;;;4939603;28;20486;-70
2023/03/19 07:37:35;;;;;;;4.85;3.85;;;;;;;;;;4944011;28;20043;-69
2023/03/19 07:40:01;;;;;;;9.00;5.68;;;;;;;;;;4945331;28;20043;-70
2023/03/19 07:42:26;;;;;;;7.45;4.65;;;;;;;;;;4945046;29;20134;-70
2023/03/19 07:44:52;;;;;;;9.50;4.32;;;;;;;;;;4944394;29;20138;-69
2023/03/19 07:47:17;;;;;;;9.73;5.03;;;;;;;;;;4940769;28;20074;-70
2023/03/19 07:49:43;;;;;;;6.25;4.47;;;;;;;;;;4926613;29;20196;-69
2023/03/19 07:52:08;;;;;;;6.93;4.53;;;;;;;;;;4944343;29;20521;-69
2023/03/19 07:54:34;;;;;;;6.43;5.00;;;;;;;;;;4943879;29;20047;-70
2023/03/19 07:57:00;;;;;;;6.72;3.63;;;;;;;;;;4943761;28;20113;-69
2023/03/19 07:59:26;;;;;;;8.55;4.95;;;;;;;;;;4948032;28;20043;-69
2023/03/19 08:01:51;;;;;;;7.00;3.83;;;;;;;;;;4938968;28;20134;-69
2023/03/19 08:04:17;;;;;;;6.45;4.57;;;;;;;;;;4942184;28;20469;-69
2023/03/19 08:06:42;;;;;;;7.15;4.35;;;;;;;;;;4941346;29;20055;-69
2023/03/19 08:09:08;;;;;;;6.97;4.63;;;;;;;;;;4943188;28;20043;-69
2023/03/19 08:11:34;;;;;;;6.82;4.75;;;;;;;;;;4943152;28;20051;-69
2023/03/19 08:14:00;;;;;;;8.45;4.95;;;;;;;;;;4943481;29;20047;-69
2023/03/19 08:16:25;;;;;;;7.55;4.20;;;;;;;;;;4943464;29;20146;-69
2023/03/19 08:18:51;;;;;;;6.28;4.30;;;;;;;;;;4942822;28;20513;-69
2023/03/19 08:21:16;;;;;;;8.68;4.80;;;;;;;;;;4944172;28;20754;-69
2023/03/19 08:23:42;;;;;;;5.70;3.97;;;;;;;;;;4943616;29;20296;-69
2023/03/19 08:26:07;;;;;;;5.13;3.78;;;;;;;;;;4943119;29;20051;-69
2023/03/19 08:28:33;;;;;;;5.90;4.20;;;;;;;;;;4943391;29;20407;-69
2023/03/19 08:31:09;;;;;;;8.10;4.15;;;;;;;;;;4942763;28;20051;-69
2023/03/19 08:33:35;;;;;;;5.47;4.18;;;;;;;;;;4943773;28;20058;-69
2023/03/19 08:36:11;;;;;;;7.63;4.45;;;;;;;;;;4943492;29;20047;-68
2023/03/19 08:38:37;;;;;;;5.32;4.32;;;;;;;;;;4942424;29;20047;-69
2023/03/19 08:41:03;;;;;;;5.82;3.92;;;;;;;;;;4942979;28;20054;-69
2023/03/19 08:43:33;;;;;;;8.50;3.80;;;;;;;;;;4943286;28;20076;-69
2023/03/19 08:46:00;;;;;;;5.53;3.72;;;;;;;;;;4942889;29;20050;-69
2023/03/19 08:48:26;;;;;;;5.78;3.83;;;;;;;;;;4942749;29;20046;-69
2023/03/19 08:50:53;;;;;;;4.35;3.13;;;;;;;;;;4942852;29;20054;-69
2023/03/19 08:53:19;;;;;;;7.13;3.28;;;;;;;;;;4942352;28;20043;-70
2023/03/19 08:55:51;;;;;;;4.38;3.05;;;;;;;;;;4942086;28;20051;-70
2023/03/19 08:58:16;;;;;;;4.82;3.33;;;;;;;;;;4941626;28;20142;-70
2023/03/19 09:00:41;;;;;;;5.20;3.30;;;;;;;;;;4942680;29;20581;-70
2023/03/19 09:03:07;;;;;;;6.22;2.90;;;;;;;;;;4941999;28;20049;-70
2023/03/19 09:05:32;;;;;;;4.10;3.40;;;;;;;;;;4942324;28;20852;-70
2023/03/19 09:07:58;;;;;;;4.85;3.63;;;;;;;;;;4943094;29;20118;-70
2023/03/19 09:10:23;;;;;;;4.53;3.58;;;;;;;;;;4941954;29;20051;-70
2023/03/19 09:12:49;;;;;;;5.57;2.97;;;;;;;;;;4942300;29;20058;-70
2023/03/19 09:15:14;;;;;;;4.47;3.38;;;;;;;;;;4924316;29;20071;-70
2023/03/19 09:17:39;;;;;;;4.22;3.50;;;;;;;;;;4942875;28;20722;-70
2023/03/19 09:20:06;;;;;;;6.55;3.03;;;;;;;;;;4942940;29;20067;-70
2023/03/19 09:22:31;;;;;;;6.35;3.03;;;;;;;;;;4940360;29;20047;-70
2023/03/19 09:24:57;;;;;;;5.55;2.97;;;;;;;;;;4941605;28;20061;-70
2023/03/19 09:27:22;;;;;;;7.47;3.15;;;;;;;;;;4942712;28;20051;-70
2023/03/19 09:29:48;;;;;;;5.15;3.22;;;;;;;;;;4942668;29;20062;-71
2023/03/19 09:32:13;;;;;;;5.18;2.90;;;;;;;;;;4941709;29;20162;-71
2023/03/19 09:34:39;;;;;;;3.88;2.80;;;;;;;;;;4942471;29;20059;-70
2023/03/19 09:37:05;;;;;;;4.82;2.88;;;;;;;;;;4940949;28;20114;-70
2023/03/19 09:39:31;;;;;;;3.33;2.40;;;;;;;;;;4941071;28;20051;-70
2023/03/19 09:42:04;;;;;;;7.32;3.13;;;;;;;;;;4942015;29;20866;-70
2023/03/19 09:44:34;;;;;;;5.43;2.75;;;;;;;;;;4941667;29;20055;-70
2023/03/19 09:47:22;;;;;;;3.10;2.40;;;;;;;;;;4941588;28;20051;-70
2023/03/19 09:49:49;;;;;;;5.40;2.50;;;;;;;;;;4942169;28;20529;-70
2023/03/19 09:52:37;;;;;;;4.30;2.30;;;;;;;;;;4941042;29;20130;-70
2023/03/19 09:55:34;;;;;;;4.03;2.40;;;;;;;;;;4941696;29;20055;-70
2023/03/19 09:58:01;;;;;;;3.92;2.38;;;;;;;;;;4914260;28;20054;-72
2023/03/19 10:00:34;;;;;;;3.67;2.22;;;;;;;;;;4940216;28;20554;-70
2023/03/19 10:03:28;;;;;;;5.35;2.17;;;;;;;;;;4939329;29;20059;-71
2023/03/19 10:06:25;;;;;;;4.07;2.30;;;;;;;;;;4939340;29;20043;-70
2023/03/19 10:09:13;;;;;;;5.68;2.38;;;;;;;;;;4918199;28;20047;-69
2023/03/19 10:12:25;;;;;;;3.33;2.08;;;;;;;;;;4935743;28;20773;-70
2023/03/19 10:15:03;;;;;;;3.17;2.20;;;;;;;;;;4812241;29;20065;-69
2023/03/19 10:17:42;;;;;;;6.18;2.42;;;;;;;;;;4924347;29;20043;-70
2023/03/19 10:20:16;;;;;;;5.10;2.00;;;;;;;;;;4940458;28;20074;-70
2023/03/19 10:22:56;;;;;;;3.97;2.00;;;;;;;;;;4919211;29;20581;-69
2023/03/19 10:25:26;;;;;;;2.55;1.98;;;;;;;;;;4940825;29;20399;-70
2023/03/19 10:28:00;;;;;;;3.85;1.75;;;;;;;;;;4940825;29;20043;-69
2023/03/19 10:30:27;;;;;;;2.70;1.88;;;;;;;;;;4940431;29;20039;-69
2023/03/19 10:33:22;;;;;;;2.97;1.90;;;;;;;;;;4938838;28;20063;-69
2023/03/19 10:35:56;;;;;;;2.58;1.70;;;;;;;;;;4938628;28;20067;-69
2023/03/19 10:38:25;;;;;;;3.20;1.92;;;;;;;;;;4938765;29;20051;-69
2023/03/19 10:41:19;;;;;;;4.07;2.30;;;;;;;;;;4941131;29;20498;-69
2023/03/19 10:43:51;;;;;;;8.20;2.00;;;;;;;;;;4941896;28;20062;-69
2023/03/19 10:46:16;;;;;;;;;;;;;;;;;;4940955;29;20051;-69
2023/03/19 10:48:44;;;;;;;5.43;1.98;;;;;;;;;;4940348;29;19929;-70
2023/03/19 10:51:14;;;;;;;2.88;1.73;;;;;;;;;;4941463;29;20051;-70
2023/03/19 10:53:40;;;;;;;6.15;2.13;;;;;;;;;;4940514;28;20055;-70
2023/03/19 10:56:05;;;;;;;4.22;1.90;;;;;;;;;;4941421;28;20079;-69
2023/03/19 10:58:34;;;;;;;4.28;2.20;;;;;;;;;;4940683;29;20093;-69
2023/03/19 11:01:02;;;;;;;6.35;2.40;;;;;;;;;;4941036;29;20057;-69
2023/03/19 11:03:30;;;;;;;3.85;2.17;;;;;;;;;;4940813;29;20055;-69
2023/03/19 11:06:26;;;;;;;3.33;2.17;;;;;;;;;;4923876;28;20061;-69
2023/03/19 11:08:56;;;;;;;3.80;2.05;;;;;;;;;;4924723;29;20055;-70
2023/03/19 11:11:23;;;;;;;6.55;2.15;;;;;;;;;;4941262;29;20133;-68
2023/03/19 11:13:49;;;;;;;4.90;2.28;;;;;;;;;;4940964;29;20050;-69
2023/03/19 11:16:14;;;;;;;3.75;1.90;;;;;;;;;;4940375;28;20405;-70
2023/03/19 11:18:40;;;;;;;2.20;2.00;;;;;;;;;;4940898;28;20051;-69
2023/03/19 11:21:20;;;;;;;3.40;1.98;;;;;;;;;;4942258;28;20055;-70
2023/03/19 11:23:51;;;;;;;2.63;2.13;;;;;;;;;;4944319;29;20054;-70
2023/03/19 11:26:20;;;;;;;4.22;2.25;;;;;;;;;;4943844;28;20118;-69
2023/03/19 11:28:50;;;;;;;3.47;2.17;;;;;;;;;;4944985;28;20051;-70
2023/03/19 11:31:27;;;;;;;2.92;2.00;;;;;;;;;;4945035;29;20106;-69
2023/03/19 11:34:14;;;;;;;4.68;2.30;;;;;;;;;;4944153;29;20137;-70
2023/03/19 11:36:46;;;;;;;2.40;2.20;;;;;;;;;;4916046;28;20081;-71
2023/03/19 11:39:37;;;;;;;4.22;2.22;;;;;;;;;;4944801;28;20141;-70
2023/03/19 11:42:22;;;;;;;7.47;2.47;;;;;;;;;;4944737;29;20047;-71
2023/03/19 11:45:12;;;;;;;6.88;2.22;;;;;;;;;;4926727;29;20066;-70
2023/03/19 11:47:50;;;;;;;3.65;2.30;;;;;;;;;;4943933;28;20051;-70
2023/03/19 11:50:29;;;;;;;6.53;2.83;;;;;;;;;;4943732;28;20504;-70
2023/03/19 11:53:10;;;;;;;4.38;2.42;;;;;;;;;;4943811;29;20581;-69
2023/03/19 11:55:41;;;;;;;3.78;2.60;;;;;;;;;;4943835;29;20146;-70
2023/03/19 11:58:34;;;;;;;2.80;2.00;;;;;;;;;;4943876;29;20086;-70
2023/03/19 12:01:57;;;;;;;3.53;2.33;;;;;;;;;;4927175;28;20054;-69
2023/03/19 12:04:41;;;;;;;3.88;2.30;;;;;;;;;;4828619;29;20173;-69
2023/03/19 12:07:45;;;;;;;4.60;2.28;;;;;;;;;;4830143;29;20046;-70
2023/03/19 12:10:19;;;;;;;5.03;2.10;;;;;;;;;;4939004;28;20483;-69
2023/03/19 12:13:01;;;;;;;2.55;2.00;;;;;;;;;;4944134;28;20141;-70
2023/03/19 12:15:56;;;;;;;6.97;2.50;;;;;;;;;;4944062;29;20055;-70
2023/03/19 12:18:47;;;;;;;2.47;1.83;;;;;;;;;;4942800;29;20134;-69
2023/03/19 12:21:29;;;;;;;3.60;1.90;;;;;;;;;;4942912;28;20458;-69
2023/03/19 12:24:08;;;;;;;4.22;1.90;;;;;;;;;;4943564;28;20105;-70
2023/03/19 12:26:55;;;;;;;2.75;1.70;;;;;;;;;;4943342;29;20075;-69
2023/03/19 12:29:34;;;;;;;4.30;1.77;;;;;;;;;;4942266;29;20047;-69
2023/03/19 12:32:24;;;;;;;2.33;1.88;;;;;;;;;;4924192;28;20047;-69
2023/03/19 12:34:54;;;;;;;4.80;2.10;;;;;;;;;;4921824;29;20058;-69
2023/03/19 12:37:28;;;;;;;2.58;2.17;;;;;;;;;;4941765;29;20051;-69
2023/03/19 12:40:20;;;;;;;3.22;1.95;;;;;;;;;;4941992;29;20082;-70
2023/03/19 12:42:46;;;;;;;5.68;1.92;;;;;;;;;;4908638;29;20083;-69
2023/03/19 12:45:34;;;;;;;4.70;2.03;;;;;;;;;;4942468;28;20127;-69
2023/03/19 12:48:26;;;;;;;3.08;1.90;;;;;;;;;;4941593;29;20075;-69
2023/03/19 12:50:55;;;;;;;;;;;;;;;;;;4912581;29;20093;-69
2023/03/19 12:53:34;;;;;;;4.35;2.20;;;;;;;;;;4941899;28;19965;-69
2023/03/19 12:56:08;;;;;;;2.78;2.20;;;;;;;;;;4942890;28;20047;-69
2023/03/19 12:59:03;;;;;;;3.25;2.05;;;;;;;;;;4942528;29;20054;-69
2023/03/19 13:01:34;;;;;;;2.75;2.00;;;;;;;;;;4943058;29;20542;-69
2023/03/19 13:04:08;;;;;;;4.43;1.83;;;;;;;;;;4942065;28;20081;-69
2023/03/19 13:06:37;;;;;;;5.57;2.30;;;;;;;;;;4942562;28;20581;-69
2023/03/19 13:09:27;;;;;;;3.22;1.80;;;;;;;;;;4942928;29;20061;-69
2023/03/19 13:12:06;;;;;;;2.97;1.70;;;;;;;;;;4942130;29;20502;-69
2023/03/19 13:15:11;;;;;;;3.63;1.90;;;;;;;;;;4941552;28;20454;-69
2023/03/19 13:18:10;;;;;;;3.90;2.50;;;;;;;;;;4942125;28;20276;-69
2023/03/19 13:20:59;;;;;;;2.88;2.30;;;;;;;;;;4941861;29;20106;-69
2023/03/19 13:23:30;;;;;;;4.28;2.20;;;;;;;;;;4942659;29;20055;-70
2023/03/19 13:25:57;;;;;;;4.50;2.10;;;;;;;;;;4941856;28;20057;-69
2023/03/19 13:28:29;;;;;;;2.20;2.00;;;;;;;;;;4942246;28;20490;-70
2023/03/19 13:31:25;;;;;;;3.25;2.00;;;;;;;;;;4942619;29;20058;-69
2023/03/19 13:34:00;;;;;;;3.05;1.77;;;;;;;;;;4922033;29;20565;-71
2023/03/19 13:36:29;;;;;;;3.22;2.00;;;;;;;;;;4941457;29;20648;-70
2023/03/19 13:38:58;;;;;;;3.75;2.10;;;;;;;;;;4942488;28;20074;-70
2023/03/19 13:41:37;;;;;;;3.05;2.03;;;;;;;;;;4941148;29;20055;-71
2023/03/19 13:44:21;;;;;;;4.97;2.25;;;;;;;;;;4942080;28;20150;-71
2023/03/19 13:46:47;;;;;;;2.53;2.10;;;;;;;;;;4915841;29;20134;-71
2023/03/19 13:49:18;;;;;;;5.65;2.35;;;;;;;;;;4941502;28;20047;-71
2023/03/19 13:51:47;;;;;;;4.45;2.42;;;;;;;;;;4942363;28;20146;-70
2023/03/19 13:54:18;;;;;;;5.60;1.90;;;;;;;;;;4941472;29;20050;-71
2023/03/19 13:57:02;;;;;;;10.00;2.53;;;;;;;;;;4942039;29;20065;-71
2023/03/19 13:59:29;;;;;;;4.30;2.10;;;;;;;;;;4941515;28;20468;-70
2023/03/19 14:01:56;;;;;;;9.80;2.40;;;;;;;;;;4924399;29;20058;-71
2023/03/19 14:04:29;;;;;;;3.60;2.22;;;;;;;;;;4940277;29;20046;-70
2023/03/19 14:06:58;;;;;;;2.22;2.03;;;;;;;;;;4941420;29;20055;-70
2023/03/19 14:09:34;;;;;;;5.22;2.72;;;;;;;;;;4940946;29;20039;-71
2023/03/19 14:12:11;;;;;;;8.50;2.47;;;;;;;;;;4941798;28;20047;-70
2023/03/19 14:15:00;;;;;;;2.75;2.00;;;;;;;;;;4940921;29;20055;-71
2023/03/19 14:17:52;;;;;;;3.15;2.10;;;;;;;;;;4941529;29;20043;-71
2023/03/19 14:20:17;;;;;;;2.17;1.98;;;;;;;;;;4939977;29;20050;-71
2023/03/19 14:23:09;;;;;;;5.07;2.20;;;;;;;;;;4941502;28;20062;-70
2023/03/19 14:26:02;;;;;;;4.03;2.13;;;;;;;;;;4940791;29;20134;-70
2023/03/19 14:32:17;;;;;;;4.97;2.00;;;;;;;;;;4940518;29;20054;-70
2023/03/19 14:34:45;;;;;;;4.35;2.05;;;;;;;;;;4940892;28;20149;-70
2023/03/19 14:37:27;;;;;;;3.65;1.60;;;;;;;;;;4940404;29;20051;-71
2023/03/19 14:40:23;;;;;;;3.78;1.83;;;;;;;;;;4941357;29;20055;-70
2023/03/19 14:43:03;;;;;;;2.58;2.08;;;;;;;;;;4919288;28;20083;-71
2023/03/19 14:45:47;;;;;;;4.00;1.85;;;;;;;;;;4941408;28;20150;-71
2023/03/19 14:48:46;;;;;;;4.05;2.08;;;;;;;;;;4938097;29;20039;-70
2023/03/19 14:51:49;;;;;;;4.43;2.25;;;;;;;;;;4939270;28;20035;-71
2023/03/19 14:54:19;;;;;;;2.80;1.75;;;;;;;;;;4940083;28;20047;-72
2023/03/19 14:56:47;;;;;;;3.60;2.00;;;;;;;;;;4942791;28;20051;-71
2023/03/19 14:59:14;;;;;;;2.70;1.63;;;;;;;;;;4945368;29;20130;-71
2023/03/19 15:01:43;;;;;;;3.35;2.03;;;;;;;;;;4943351;29;20054;-71
2023/03/19 15:04:14;;;;;;;2.15;1.83;;;;;;;;;;4944253;29;20057;-71
2023/03/19 15:06:43;;;;;;;10.40;1.83;;;;;;;;;;4944592;28;20062;-70